Terminal Aerodrome Forecast
Issued by NWS Albuquerque, NM

Home | Current Version | Previous Version | Text Only | Print | Product List | Glossary On
Versions: 1 2 3 4 5 6 7 8 9 10 11 12 13 14
000
FTUS45 KABQ 181700
TAFABQ
TAF
KABQ 181721Z 1818/1918 33006KT P6SM FEW070 SCT100
     FM182200 13011KT P6SM BKN070
     FM190200 11012KT P6SM VCSH SCT030 BKN050=

USA.gov is the U.S. government's official web portal to all federal, state and local government web resources and services.